Time;durP1;ratioP1;P1;durP2;ratioP2;P2;SDS_P1;SDS_P2;PMS_P1;PMS_P2;Temp;Humidity;BMP_temperature;BMP_pressure;BME280_temperature;BME280_humidity;BME280_pressure;Samples;Min_cycle;Max_cycle;Signal;HPM_P1;HPM_P2
2022/02/15 00:02:17;;;;;;;;;;;6.30;99.90;;;;;;5034017;28;20300;-74
2022/02/15 00:04:44;;;;;;;;;;;6.20;99.90;;;;;;5033242;28;19925;-74
2022/02/15 00:07:11;;;;;;;;;;;6.20;99.90;;;;;;5038599;28;20391;-74
2022/02/15 00:09:39;;;;;;;;;;;6.20;99.90;;;;;;5039583;28;19925;-73
2022/02/15 00:12:06;;;;;;;;;;;6.20;99.90;;;;;;5044746;28;19933;-74
2022/02/15 00:14:33;;;;;;;;;;;6.30;99.90;;;;;;5031193;28;19929;-74
2022/02/15 00:16:59;;;;;;;;;;;6.30;99.90;;;;;;5035149;28;19931;-74
2022/02/15 00:19:26;;;;;;;;;;;6.30;99.90;;;;;;5032005;28;20442;-74
2022/02/15 00:21:53;;;;;;;;;;;6.40;99.90;;;;;;5028640;28;19935;-73
2022/02/15 00:24:19;;;;;;;;;;;6.40;99.90;;;;;;5031784;28;19932;-73
2022/02/15 00:26:48;;;;;;;;;;;6.40;99.90;;;;;;5029331;28;19947;-74
2022/02/15 00:29:15;;;;;;;;;;;6.40;99.90;;;;;;5031940;28;20285;-73
2022/02/15 00:31:42;;;;;;;;;;;6.40;99.90;;;;;;5030415;28;20435;-73
2022/02/15 00:34:08;;;;;;;;;;;6.40;99.90;;;;;;5039955;28;20372;-73
2022/02/15 00:36:35;;;;;;;;;;;6.30;99.90;;;;;;5033276;28;19992;-77
2022/02/15 00:39:04;;;;;;;;;;;6.30;99.90;;;;;;5032641;28;20396;-73
2022/02/15 00:41:31;;;;;;;;;;;6.30;99.90;;;;;;5029300;28;19987;-73
2022/02/15 00:43:59;;;;;;;;;;;6.30;99.90;;;;;;5031303;28;19933;-73
2022/02/15 00:46:26;;;;;;;;;;;6.30;99.90;;;;;;5029757;28;19931;-73
2022/02/15 00:48:53;;;;;;;;;;;6.30;99.90;;;;;;5032205;28;19932;-73
2022/02/15 00:51:19;;;;;;;;;;;6.30;99.90;;;;;;5033203;28;19932;-74
2022/02/15 00:53:46;;;;;;;;;;;6.40;99.90;;;;;;5035765;28;19931;-74
2022/02/15 00:56:13;;;;;;;;;;;6.30;99.90;;;;;;5034683;28;19932;-73
2022/02/15 00:58:39;;;;;;;;;;;6.30;99.90;;;;;;5032484;28;19975;-73
2022/02/15 01:01:08;;;;;;;;;;;6.30;99.90;;;;;;5032120;28;20004;-73
2022/02/15 01:03:34;;;;;;;;;;;6.40;99.90;;;;;;5031307;28;19925;-73
2022/02/15 01:06:01;;;;;;;;;;;6.30;99.90;;;;;;5027523;28;19925;-73
2022/02/15 01:08:28;;;;;;;;;;;6.40;99.90;;;;;;5032657;28;20376;-73
2022/02/15 01:10:54;;;;;;;;;;;6.30;99.90;;;;;;5030502;28;19925;-72
2022/02/15 01:13:21;;;;;;;;;;;6.30;99.90;;;;;;5029916;28;19931;-73
2022/02/15 01:15:48;;;;;;;;;;;6.40;99.90;;;;;;5030050;28;19925;-73
2022/02/15 01:18:16;;;;;;;;;;;6.30;99.90;;;;;;5029741;28;19925;-73
2022/02/15 01:20:42;;;;;;;;;;;6.40;99.90;;;;;;5032985;28;19925;-73
2022/02/15 01:23:09;;;;;;;;;;;6.30;99.90;;;;;;5032335;28;19925;-73
2022/02/15 01:25:36;;;;;;;;;;;6.30;99.90;;;;;;5029628;28;19925;-73
2022/02/15 01:28:02;;;;;;;;;;;6.40;99.90;;;;;;5039519;28;19925;-73
2022/02/15 01:30:29;;;;;;;;;;;6.40;99.90;;;;;;5031906;28;19925;-73
2022/02/15 01:32:55;;;;;;;;;;;6.30;99.90;;;;;;5030860;28;19929;-73
2022/02/15 01:35:24;;;;;;;;;;;6.30;99.90;;;;;;5030232;28;20027;-73
2022/02/15 01:37:50;;;;;;;;;;;6.20;99.90;;;;;;5038704;28;19979;-73
2022/02/15 01:40:17;;;;;;;;;;;6.20;99.90;;;;;;5028963;28;19925;-73
2022/02/15 01:42:43;;;;;;;;;;;6.20;99.90;;;;;;5031991;28;20268;-73
2022/02/15 01:45:11;;;;;;;;;;;6.10;99.90;;;;;;5027055;28;19935;-73
2022/02/15 01:47:38;;;;;;;;;;;6.10;99.90;;;;;;5036304;28;20071;-73
2022/02/15 01:50:05;;;;;;;;;;;6.10;99.90;;;;;;5030291;28;19929;-73
2022/02/15 01:52:33;;;;;;;;;;;6.00;99.90;;;;;;5027261;28;19935;-73
2022/02/15 01:55:00;;;;;;;;;;;6.00;99.90;;;;;;5040225;28;19931;-73
2022/02/15 01:57:27;;;;;;;;;;;6.10;99.90;;;;;;5030070;28;20396;-73
2022/02/15 01:59:56;;;;;;;;;;;6.00;99.90;;;;;;5029575;28;20094;-73
2022/02/15 02:02:22;;;;;;;;;;;6.00;99.90;;;;;;5028764;28;19925;-73
2022/02/15 02:07:34;;;;;;;;;;;6.00;99.90;;;;;;5034455;28;20291;-73
2022/02/15 02:10:01;;;;;;;;;;;6.10;99.90;;;;;;5028980;28;20368;-73
2022/02/15 02:12:28;;;;;;;;;;;6.10;99.90;;;;;;5031832;28;19925;-73
2022/02/15 02:14:58;;;;;;;;;;;6.10;99.90;;;;;;5036347;28;19940;-73
2022/02/15 02:17:24;;;;;;;;;;;6.20;99.90;;;;;;5031792;28;19929;-73
2022/02/15 02:19:53;;;;;;;;;;;6.20;99.90;;;;;;5028699;28;20403;-73
2022/02/15 02:22:22;;;;;;;;;;;6.20;99.90;;;;;;5035382;28;19955;-73
2022/02/15 02:24:48;;;;;;;;;;;6.20;99.90;;;;;;5034225;28;19925;-73
2022/02/15 02:27:16;;;;;;;;;;;6.20;99.90;;;;;;5032507;28;19945;-73
2022/02/15 02:29:44;;;;;;;;;;;6.30;99.90;;;;;;5030089;28;19925;-72
2022/02/15 02:32:11;;;;;;;;;;;6.30;99.90;;;;;;5030383;28;19929;-72
2022/02/15 02:34:37;;;;;;;;;;;6.30;99.90;;;;;;5032628;28;19937;-73
2022/02/15 02:37:04;;;;;;;;;;;6.20;99.90;;;;;;5037597;28;20072;-72
2022/02/15 02:39:32;;;;;;;;;;;6.20;99.90;;;;;;5030352;28;19925;-72
2022/02/15 02:41:59;;;;;;;;;;;6.10;99.90;;;;;;5034432;28;19925;-72
2022/02/15 02:44:26;;;;;;;;;;;6.10;99.90;;;;;;5034424;28;19931;-72
2022/02/15 02:46:52;;;;;;;;;;;6.00;99.90;;;;;;5034542;28;19924;-73
2022/02/15 02:49:19;;;;;;;;;;;6.10;99.90;;;;;;5033213;28;19926;-73
2022/02/15 02:51:45;;;;;;;;;;;6.10;99.90;;;;;;5036246;28;19925;-72
2022/02/15 02:54:12;;;;;;;;;;;6.10;99.90;;;;;;5040646;28;20376;-72
2022/02/15 02:56:40;;;;;;;;;;;6.10;99.90;;;;;;5030649;28;20381;-73
2022/02/15 02:59:07;;;;;;;;;;;6.10;99.90;;;;;;5024140;28;19926;-73
2022/02/15 03:01:33;;;;;;;;;;;6.10;99.90;;;;;;5020920;28;19929;-73
2022/02/15 03:04:00;;;;;;;;;;;6.10;99.90;;;;;;5033245;28;19925;-73
2022/02/15 03:06:27;;;;;;;;;;;6.10;99.90;;;;;;5028069;28;19932;-73
2022/02/15 03:08:54;;;;;;;;;;;6.10;99.90;;;;;;5034365;28;19925;-73
2022/02/15 03:11:21;;;;;;;;;;;6.10;99.90;;;;;;5032233;28;19932;-72
2022/02/15 03:13:49;;;;;;;;;;;6.10;99.90;;;;;;5054617;28;19979;-73
2022/02/15 03:16:15;;;;;;;;;;;6.00;99.90;;;;;;5033414;28;19929;-73
2022/02/15 03:18:42;;;;;;;;;;;6.10;99.90;;;;;;5024029;28;20020;-73
2022/02/15 03:21:09;;;;;;;;;;;6.10;99.90;;;;;;5031754;28;19925;-73
2022/02/15 03:23:35;;;;;;;;;;;6.10;99.90;;;;;;5032355;28;19936;-73
2022/02/15 03:26:02;;;;;;;;;;;6.10;99.90;;;;;;5031153;28;20277;-73
2022/02/15 03:28:29;;;;;;;;;;;6.00;99.90;;;;;;5030744;28;19925;-73
2022/02/15 03:30:57;;;;;;;;;;;6.00;99.90;;;;;;5031530;28;19952;-73
2022/02/15 03:33:24;;;;;;;;;;;6.00;99.90;;;;;;5032755;28;20031;-73
2022/02/15 03:35:50;;;;;;;;;;;6.00;99.90;;;;;;5032584;28;19931;-73
2022/02/15 03:38:17;;;;;;;;;;;6.00;99.90;;;;;;5030871;28;19936;-73
2022/02/15 03:43:28;;;;;;;;;;;6.00;99.90;;;;;;5032842;28;19931;-73
2022/02/15 03:45:54;;;;;;;;;;;6.10;99.90;;;;;;5038032;28;20368;-73
2022/02/15 03:48:22;;;;;;;;;;;6.00;99.90;;;;;;5030849;28;19932;-73
2022/02/15 03:50:49;;;;;;;;;;;6.00;99.90;;;;;;5031268;28;19925;-73
2022/02/15 03:53:16;;;;;;;;;;;6.10;99.90;;;;;;5032199;28;19980;-73
2022/02/15 03:55:42;;;;;;;;;;;6.00;99.90;;;;;;5032320;28;20288;-72
2022/02/15 03:58:09;;;;;;;;;;;6.00;99.90;;;;;;5030561;28;19926;-72
2022/02/15 04:00:36;;;;;;;;;;;6.10;99.90;;;;;;5028484;28;20380;-72
2022/02/15 04:03:03;;;;;;;;;;;6.10;99.90;;;;;;5030973;28;20451;-72
2022/02/15 04:05:31;;;;;;;;;;;6.10;99.90;;;;;;5032125;28;19925;-72
2022/02/15 04:07:58;;;;;;;;;;;6.10;99.90;;;;;;5032224;28;19926;-73
2022/02/15 04:10:24;;;;;;;;;;;6.10;99.90;;;;;;5031241;28;20288;-73
2022/02/15 04:12:51;;;;;;;;;;;6.20;99.90;;;;;;5030679;28;19933;-72
2022/02/15 04:15:18;;;;;;;;;;;6.20;99.90;;;;;;5031035;28;19925;-73
2022/02/15 04:17:45;;;;;;;;;;;6.20;99.90;;;;;;5028621;28;20377;-73
2022/02/15 04:20:12;;;;;;;;;;;6.20;99.90;;;;;;5028428;28;19926;-75
2022/02/15 04:22:40;;;;;;;;;;;6.20;99.90;;;;;;5028954;28;20301;-72
2022/02/15 04:25:07;;;;;;;;;;;6.20;99.90;;;;;;5033409;28;19925;-72
2022/02/15 04:27:34;;;;;;;;;;;6.20;99.90;;;;;;5028141;28;19925;-72
2022/02/15 04:30:01;;;;;;;;;;;6.20;99.90;;;;;;5030931;28;20299;-73
2022/02/15 04:32:28;;;;;;;;;;;6.20;99.90;;;;;;5028672;28;19932;-73
2022/02/15 04:34:54;;;;;;;;;;;6.20;99.90;;;;;;5030772;28;19924;-73
2022/02/15 04:37:21;;;;;;;;;;;6.20;99.90;;;;;;5029761;28;20380;-73
2022/02/15 04:39:49;;;;;;;;;;;6.20;99.90;;;;;;5033572;28;20008;-72
2022/02/15 04:42:16;;;;;;;;;;;6.10;99.90;;;;;;5043092;28;19928;-73
2022/02/15 04:44:43;;;;;;;;;;;6.10;99.90;;;;;;5030267;28;19925;-72
2022/02/15 04:47:10;;;;;;;;;;;6.10;99.90;;;;;;5033285;28;19925;-72
2022/02/15 04:49:37;;;;;;;;;;;6.20;99.90;;;;;;5029574;28;19931;-72
2022/02/15 04:52:04;;;;;;;;;;;6.10;99.90;;;;;;5035221;28;20027;-72
2022/02/15 04:54:30;;;;;;;;;;;6.20;99.90;;;;;;5044775;28;20369;-73
2022/02/15 04:56:58;;;;;;;;;;;6.20;99.90;;;;;;5037266;28;19932;-72
2022/02/15 04:59:25;;;;;;;;;;;6.20;99.90;;;;;;5023175;28;19932;-72
2022/02/15 05:01:52;;;;;;;;;;;6.20;99.90;;;;;;5032486;28;19929;-72
2022/02/15 05:07:02;;;;;;;;;;;6.30;99.90;;;;;;5027441;28;19932;-72
2022/02/15 05:09:29;;;;;;;;;;;6.20;99.90;;;;;;5030345;28;19925;-71
2022/02/15 05:11:56;;;;;;;;;;;6.20;99.90;;;;;;5035544;28;19928;-73
2022/02/15 05:14:24;;;;;;;;;;;6.20;99.90;;;;;;5040383;28;19972;-71
2022/02/15 05:16:51;;;;;;;;;;;6.20;99.90;;;;;;5032442;28;19925;-71
2022/02/15 05:19:17;;;;;;;;;;;6.10;99.90;;;;;;5030244;28;19975;-71
2022/02/15 05:21:44;;;;;;;;;;;6.10;99.90;;;;;;5029455;28;19925;-70
2022/02/15 05:24:11;;;;;;;;;;;6.10;99.90;;;;;;5029975;28;19976;-71
2022/02/15 05:26:37;;;;;;;;;;;6.10;99.90;;;;;;5032250;28;20569;-70
2022/02/15 05:29:04;;;;;;;;;;;6.10;99.90;;;;;;5029339;28;19925;-70
2022/02/15 05:31:32;;;;;;;;;;;6.10;99.90;;;;;;5030563;28;20467;-71
2022/02/15 05:33:59;;;;;;;;;;;6.10;99.90;;;;;;5030957;28;19924;-71
2022/02/15 05:36:26;;;;;;;;;;;6.10;99.90;;;;;;5024317;28;20459;-71
2022/02/15 05:38:52;;;;;;;;;;;6.10;99.90;;;;;;5029976;28;20012;-71
2022/02/15 05:41:19;;;;;;;;;;;6.10;99.90;;;;;;5030667;28;19932;-71
2022/02/15 05:43:46;;;;;;;;;;;6.10;99.90;;;;;;5018959;28;19932;-72
2022/02/15 05:46:12;;;;;;;;;;;6.20;99.90;;;;;;5042834;28;19925;-72
2022/02/15 05:48:41;;;;;;;;;;;6.10;99.90;;;;;;5051134;28;19924;-72
2022/02/15 05:51:08;;;;;;;;;;;6.20;99.90;;;;;;5032408;28;19957;-72
2022/02/15 05:53:35;;;;;;;;;;;6.10;99.90;;;;;;5049162;28;19970;-69
2022/02/15 05:56:02;;;;;;;;;;;6.20;99.90;;;;;;5019236;28;19925;-71
2022/02/15 05:58:29;;;;;;;;;;;6.20;99.90;;;;;;5031641;28;19924;-71
2022/02/15 06:00:56;;;;;;;;;;;6.10;99.90;;;;;;5050295;28;19953;-71
2022/02/15 06:06:08;;;;;;;;;;;6.10;99.90;;;;;;5033891;28;20301;-71
2022/02/15 06:08:36;;;;;;;;;;;6.10;99.90;;;;;;5046972;28;19925;-72
2022/02/15 06:11:03;;;;;;;;;;;6.20;99.90;;;;;;5038850;28;19925;-71
2022/02/15 06:13:30;;;;;;;;;;;6.20;99.90;;;;;;5050717;28;19925;-73
2022/02/15 06:15:57;;;;;;;;;;;6.20;99.90;;;;;;5038607;28;19935;-71
2022/02/15 06:18:23;;;;;;;;;;;6.20;99.90;;;;;;5054344;28;19924;-72
2022/02/15 06:20:50;;;;;;;;;;;6.20;99.90;;;;;;5038332;28;19925;-74
2022/02/15 06:23:18;;;;;;;;;;;6.20;99.90;;;;;;5049396;28;19925;-72
2022/02/15 06:25:45;;;;;;;;;;;6.20;99.90;;;;;;5038312;28;19929;-72
2022/02/15 06:28:12;;;;;;;;;;;6.20;99.90;;;;;;5024113;28;19968;-72
2022/02/15 06:30:38;;;;;;;;;;;6.20;99.90;;;;;;5030622;28;20021;-71
2022/02/15 06:33:05;;;;;;;;;;;6.10;99.90;;;;;;5032916;28;20036;-72
2022/02/15 06:35:32;;;;;;;;;;;6.10;99.90;;;;;;5033314;28;19979;-71
2022/02/15 06:37:58;;;;;;;;;;;6.10;99.90;;;;;;5038751;28;19979;-72
2022/02/15 06:40:26;;;;;;;;;;;6.10;99.90;;;;;;5028533;28;20263;-71
2022/02/15 06:42:53;;;;;;;;;;;6.10;99.90;;;;;;5022097;28;20373;-71
2022/02/15 06:45:20;;;;;;;;;;;6.10;99.90;;;;;;5034765;28;19931;-72
2022/02/15 06:47:46;;;;;;;;;;;6.00;99.90;;;;;;5030645;28;19925;-72
2022/02/15 06:50:13;;;;;;;;;;;6.00;99.90;;;;;;5026389;28;19926;-72
2022/02/15 06:52:41;;;;;;;;;;;5.90;99.90;;;;;;5020712;28;20394;-71
2022/02/15 06:55:08;;;;;;;;;;;5.80;99.90;;;;;;5022825;28;20356;-69
2022/02/15 06:57:36;;;;;;;;;;;5.70;99.90;;;;;;5030186;28;19931;-70
2022/02/15 07:00:06;;;;;;;;;;;5.70;99.90;;;;;;5020457;28;20324;-73
2022/02/15 07:02:33;;;;;;;;;;;5.70;99.90;;;;;;5026934;28;19933;-71
2022/02/15 07:04:59;;;;;;;;;;;5.70;99.90;;;;;;5030607;28;19924;-69
2022/02/15 07:07:26;;;;;;;;;;;5.70;99.90;;;;;;5026768;28;20299;-71
2022/02/15 07:09:53;;;;;;;;;;;5.80;99.90;;;;;;5030421;28;19925;-70
2022/02/15 07:12:20;;;;;;;;;;;5.70;99.90;;;;;;5027554;28;19932;-74
2022/02/15 07:14:48;;;;;;;;;;;5.70;99.90;;;;;;5033662;28;19932;-71
2022/02/15 07:17:15;;;;;;;;;;;5.70;99.90;;;;;;5037268;28;19990;-72
2022/02/15 07:19:41;;;;;;;;;;;5.70;99.90;;;;;;5030321;28;20012;-70
2022/02/15 07:22:08;;;;;;;;;;;5.60;99.90;;;;;;5039351;28;19928;-70
2022/02/15 07:24:36;;;;;;;;;;;5.60;99.90;;;;;;5018109;28;19925;-69
2022/02/15 07:27:02;;;;;;;;;;;5.60;99.90;;;;;;5028971;28;20371;-68
2022/02/15 07:29:29;;;;;;;;;;;5.50;99.90;;;;;;5032422;28;19929;-71
2022/02/15 07:31:57;;;;;;;;;;;5.50;99.90;;;;;;5031113;28;20032;-71
2022/02/15 07:34:24;;;;;;;;;;;5.50;99.90;;;;;;5050071;28;20299;-69
2022/02/15 07:36:51;;;;;;;;;;;5.50;99.90;;;;;;5036091;28;20015;-70
2022/02/15 07:39:18;;;;;;;;;;;5.60;99.90;;;;;;5037038;28;19935;-70
2022/02/15 07:41:44;;;;;;;;;;;5.60;99.90;;;;;;5027180;28;19926;-70
2022/02/15 07:44:11;;;;;;;;;;;5.60;99.90;;;;;;5031548;28;20403;-71
2022/02/15 07:46:38;;;;;;;;;;;5.60;99.90;;;;;;5032236;28;19929;-71
2022/02/15 07:49:06;;;;;;;;;;;5.50;99.90;;;;;;5027244;28;19935;-70
2022/02/15 07:51:32;;;;;;;;;;;5.40;99.90;;;;;;5029677;28;19948;-70
2022/02/15 07:53:59;;;;;;;;;;;5.40;99.90;;;;;;5035153;28;19925;-71
2022/02/15 07:56:26;;;;;;;;;;;5.40;99.90;;;;;;5031351;28;19928;-70
2022/02/15 07:58:52;;;;;;;;;;;5.30;99.90;;;;;;5036110;28;20008;-71
2022/02/15 08:01:19;;;;;;;;;;;5.40;99.90;;;;;;5036838;28;20023;-71
2022/02/15 08:03:46;;;;;;;;;;;5.40;99.90;;;;;;5031693;28;20008;-70
2022/02/15 08:06:14;;;;;;;;;;;5.40;99.90;;;;;;5035959;28;20407;-71
2022/02/15 08:08:41;;;;;;;;;;;5.40;99.90;;;;;;5038237;28;19925;-71
2022/02/15 08:11:07;;;;;;;;;;;5.40;99.90;;;;;;5031392;28;19929;-71
2022/02/15 08:13:35;;;;;;;;;;;5.40;99.90;;;;;;5042868;28;19933;-70
2022/02/15 08:16:01;;;;;;;;;;;5.40;99.90;;;;;;5031388;28;20015;-70
2022/02/15 08:18:28;;;;;;;;;;;5.40;99.90;;;;;;5043165;28;19929;-70
2022/02/15 08:20:55;;;;;;;;;;;5.40;99.90;;;;;;5032241;28;19929;-71
2022/02/15 08:23:23;;;;;;;;;;;5.40;99.90;;;;;;5034721;28;19925;-71
2022/02/15 08:25:52;;;;;;;;;;;5.50;99.90;;;;;;5028641;28;19925;-69
2022/02/15 08:28:19;;;;;;;;;;;6.30;99.90;;;;;;5031733;28;19979;-71
2022/02/15 08:30:45;;;;;;;;;;;7.20;99.90;;;;;;5029266;28;19925;-69
2022/02/15 08:33:12;;;;;;;;;;;8.50;99.90;;;;;;5038651;28;19925;-70
2022/02/15 08:35:39;;;;;;;;;;;9.10;99.90;;;;;;5044353;28;19943;-71
2022/02/15 08:38:06;;;;;;;;;;;9.70;99.30;;;;;;5033443;28;19971;-70
2022/02/15 08:40:34;;;;;;;;;;;10.30;95.70;;;;;;5038788;28;19925;-70
2022/02/15 08:43:01;;;;;;;;;;;9.80;94.60;;;;;;5046997;28;19925;-71
2022/02/15 08:45:28;;;;;;;;;;;9.80;94.80;;;;;;5029799;28;19933;-72
2022/02/15 08:47:55;;;;;;;;;;;9.90;94.40;;;;;;5041517;28;19929;-71
2022/02/15 08:50:22;;;;;;;;;;;10.20;93.30;;;;;;5032032;28;19925;-72
2022/02/15 08:52:49;;;;;;;;;;;10.60;92.30;;;;;;5027734;28;19925;-71
2022/02/15 08:55:16;;;;;;;;;;;10.50;90.90;;;;;;5037740;28;19972;-72
2022/02/15 08:57:44;;;;;;;;;;;10.50;91.20;;;;;;5039729;28;19924;-72
2022/02/15 09:00:14;;;;;;;;;;;11.20;90.50;;;;;;5047059;28;20027;-71
2022/02/15 09:02:40;;;;;;;;;;;11.60;87.00;;;;;;5032347;28;20035;-71
2022/02/15 09:05:09;;;;;;;;;;;11.50;84.60;;;;;;5030782;28;19925;-72
2022/02/15 09:07:35;;;;;;;;;;;11.20;84.10;;;;;;5037860;28;19925;-71
2022/02/15 09:10:02;;;;;;;;;;;11.00;83.10;;;;;;5029037;28;20012;-72
2022/02/15 09:12:29;;;;;;;;;;;10.60;84.90;;;;;;5038121;28;20383;-72
2022/02/15 09:14:57;;;;;;;;;;;10.70;85.10;;;;;;5033228;28;19929;-72
2022/02/15 09:17:24;;;;;;;;;;;10.80;85.20;;;;;;5023596;28;19933;-72
2022/02/15 09:19:52;;;;;;;;;;;10.70;84.30;;;;;;5031763;28;20417;-72
2022/02/15 09:22:19;;;;;;;;;;;10.90;84.00;;;;;;5031200;28;19925;-72
2022/02/15 09:24:46;;;;;;;;;;;11.00;82.50;;;;;;5038282;28;19925;-72
2022/02/15 09:27:14;;;;;;;;;;;10.40;83.30;;;;;;5030954;28;19925;-72
2022/02/15 09:29:40;;;;;;;;;;;10.40;85.20;;;;;;5032126;28;19925;-72
2022/02/15 09:32:08;;;;;;;;;;;10.40;85.40;;;;;;5024095;28;19932;-72
2022/02/15 09:34:35;;;;;;;;;;;10.50;84.30;;;;;;5031822;28;19944;-71
2022/02/15 09:37:02;;;;;;;;;;;9.90;85.70;;;;;;5024736;28;19933;-71
2022/02/15 09:39:29;;;;;;;;;;;9.70;88.40;;;;;;5030285;28;20368;-72
2022/02/15 09:41:57;;;;;;;;;;;9.80;89.70;;;;;;5037652;28;20387;-72
2022/02/15 09:44:24;;;;;;;;;;;10.40;87.00;;;;;;5043153;28;19968;-71
2022/02/15 09:46:51;;;;;;;;;;;9.70;87.70;;;;;;5035366;28;19931;-74
2022/02/15 09:52:04;;;;;;;;;;;7.90;93.20;;;;;;5033964;28;20431;-72
2022/02/15 09:54:31;;;;;;;;;;;7.70;94.40;;;;;;5035839;28;20400;-71
2022/02/15 09:56:58;;;;;;;;;;;7.70;95.20;;;;;;5035695;28;19953;-71
2022/02/15 09:59:24;;;;;;;;;;;7.80;95.80;;;;;;5038223;28;19947;-71
2022/02/15 10:01:52;;;;;;;;;;;7.80;96.10;;;;;;5032480;28;19925;-71
2022/02/15 10:04:32;;;;;;;;;;;7.90;96.20;;;;;;5026153;28;19930;-71
2022/02/15 10:06:58;;;;;;;;;;;7.90;96.20;;;;;;5034102;28;20283;-71
2022/02/15 10:09:26;;;;;;;;;;;7.90;96.00;;;;;;5034750;28;19932;-71
2022/02/15 10:11:52;;;;;;;;;;;7.90;96.50;;;;;;5034279;28;19973;-72
2022/02/15 10:14:19;;;;;;;;;;;7.80;96.50;;;;;;5027443;28;19929;-70
2022/02/15 10:16:46;;;;;;;;;;;7.70;96.30;;;;;;5048094;28;19970;-70
2022/02/15 10:19:20;;;;;;;;;;;7.60;96.90;;;;;;5045032;28;20413;-70
2022/02/15 10:21:51;;;;;;;;;;;7.80;97.00;;;;;;5046168;28;19947;-70
2022/02/15 10:24:17;;;;;;;;;;;7.90;96.90;;;;;;5036266;28;19987;-71
2022/02/15 10:26:53;;;;;;;;;;;8.10;96.70;;;;;;5028702;28;20289;-70
2022/02/15 10:29:20;;;;;;;;;;;8.10;96.10;;;;;;5028466;28;20003;-70
2022/02/15 10:31:47;;;;;;;;;;;8.10;96.30;;;;;;5024863;28;19925;-70
2022/02/15 10:34:13;;;;;;;;;;;8.20;96.00;;;;;;5024837;28;20020;-70
2022/02/15 10:36:40;;;;;;;;;;;8.20;95.80;;;;;;5027927;28;19925;-70
2022/02/15 10:39:12;;;;;;;;;;;8.20;95.60;;;;;;5028114;28;19925;-71
2022/02/15 10:41:38;;;;;;;;;;;8.30;96.10;;;;;;5026010;28;20201;-71
2022/02/15 10:44:07;;;;;;;;;;;8.40;96.10;;;;;;5036566;28;19925;-70
2022/02/15 10:46:35;;;;;;;;;;;8.30;95.30;;;;;;5043092;28;20024;-70
2022/02/15 10:49:01;;;;;;;;;;;8.20;95.70;;;;;;5029936;28;19925;-70
2022/02/15 10:51:28;;;;;;;;;;;8.20;96.20;;;;;;5032387;28;19932;-70
2022/02/15 10:53:55;;;;;;;;;;;8.40;96.40;;;;;;5043290;28;19956;-70
2022/02/15 10:56:23;;;;;;;;;;;8.50;96.40;;;;;;5036380;28;20292;-70
2022/02/15 10:58:52;;;;;;;;;;;8.50;95.90;;;;;;5024928;28;20024;-71
2022/02/15 11:01:19;;;;;;;;;;;8.60;95.90;;;;;;5030679;28;19933;-70
2022/02/15 11:03:46;;;;;;;;;;;8.60;95.30;;;;;;5022325;28;19948;-70
2022/02/15 11:06:13;;;;;;;;;;;8.70;95.10;;;;;;5025553;28;19992;-71
2022/02/15 11:08:42;;;;;;;;;;;9.00;95.50;;;;;;5014672;28;20016;-72
2022/02/15 11:11:12;;;;;;;;;;;9.10;95.00;;;;;;5041215;28;19932;-72
2022/02/15 11:13:41;;;;;;;;;;;9.10;95.50;;;;;;5033571;28;19937;-75
2022/02/15 11:16:11;;;;;;;;;;;9.10;94.40;;;;;;5035961;28;19933;-75
2022/02/15 11:18:38;;;;;;;;;;;9.10;95.10;;;;;;5039034;28;20275;-71
2022/02/15 11:21:06;;;;;;;;;;;9.10;95.00;;;;;;5033241;28;20032;-71
2022/02/15 11:23:33;;;;;;;;;;;9.20;94.90;;;;;;5032462;28;20015;-71
2022/02/15 11:26:05;;;;;;;;;;;9.30;94.90;;;;;;5047842;28;20183;-71
2022/02/15 11:28:32;;;;;;;;;;;9.20;93.70;;;;;;5036583;28;19925;-72
2022/02/15 11:31:01;;;;;;;;;;;9.20;94.20;;;;;;5031099;28;19979;-73
2022/02/15 11:33:29;;;;;;;;;;;9.30;93.40;;;;;;5033938;28;20011;-71
2022/02/15 11:35:56;;;;;;;;;;;9.40;93.30;;;;;;5034376;28;19929;-71
2022/02/15 11:38:23;;;;;;;;;;;9.30;92.60;;;;;;5037871;28;19933;-71
2022/02/15 11:40:57;;;;;;;;;;;9.20;92.70;;;;;;5027638;28;20381;-71
2022/02/15 11:43:23;;;;;;;;;;;9.20;92.60;;;;;;5035291;28;19932;-73
2022/02/15 11:45:50;;;;;;;;;;;9.30;92.80;;;;;;5041255;28;19925;-71
2022/02/15 11:48:18;;;;;;;;;;;9.50;92.80;;;;;;5023215;28;19925;-71
2022/02/15 11:50:47;;;;;;;;;;;9.50;91.80;;;;;;5023846;28;19947;-71
2022/02/15 11:53:16;;;;;;;;;;;9.50;91.80;;;;;;5028886;28;19925;-71
2022/02/15 11:55:43;;;;;;;;;;;9.50;92.30;;;;;;5029799;28;19925;-71
2022/02/15 11:58:10;;;;;;;;;;;9.60;92.20;;;;;;5043899;28;19928;-72
2022/02/15 12:00:38;;;;;;;;;;;9.70;92.40;;;;;;5020182;28;20352;-72
2022/02/15 12:03:05;;;;;;;;;;;9.80;92.20;;;;;;5030797;28;19932;-71
2022/02/15 12:05:36;;;;;;;;;;;9.90;92.00;;;;;;5029545;28;19925;-71
2022/02/15 12:08:03;;;;;;;;;;;9.80;91.90;;;;;;5030408;28;19925;-73
2022/02/15 12:10:37;;;;;;;;;;;10.00;91.00;;;;;;5038135;28;20032;-71
2022/02/15 12:13:03;;;;;;;;;;;9.90;90.90;;;;;;5034962;28;19991;-72
2022/02/15 12:15:34;;;;;;;;;;;9.80;91.20;;;;;;5029781;28;19929;-72
2022/02/15 12:18:01;;;;;;;;;;;9.90;91.10;;;;;;5034750;28;19925;-71
2022/02/15 12:20:28;;;;;;;;;;;9.90;91.20;;;;;;5038257;28;19931;-71
2022/02/15 12:22:56;;;;;;;;;;;9.90;90.50;;;;;;5031582;28;19931;-70
2022/02/15 12:25:23;;;;;;;;;;;10.00;90.40;;;;;;5033883;28;19931;-72
2022/02/15 12:27:50;;;;;;;;;;;9.90;91.10;;;;;;5034910;28;20464;-71
2022/02/15 12:30:17;;;;;;;;;;;9.90;90.70;;;;;;5037028;28;19943;-73
2022/02/15 12:32:45;;;;;;;;;;;10.10;90.90;;;;;;5031914;28;19936;-70
2022/02/15 12:35:12;;;;;;;;;;;10.20;90.20;;;;;;5028503;28;19925;-70
2022/02/15 12:37:39;;;;;;;;;;;10.20;90.50;;;;;;5039099;28;19928;-70
2022/02/15 12:40:09;;;;;;;;;;;10.10;90.10;;;;;;5032427;28;19925;-70
2022/02/15 12:42:36;;;;;;;;;;;10.10;90.00;;;;;;5037236;28;19964;-70
2022/02/15 12:45:05;;;;;;;;;;;10.10;90.30;;;;;;5036066;28;20295;-70
2022/02/15 12:47:34;;;;;;;;;;;10.10;90.90;;;;;;5022131;28;19924;-70
2022/02/15 12:50:01;;;;;;;;;;;10.20;90.80;;;;;;5038287;28;20290;-70
2022/02/15 12:52:28;;;;;;;;;;;10.10;90.00;;;;;;5038059;28;19925;-70
2022/02/15 12:54:57;;;;;;;;;;;10.20;90.60;;;;;;5030404;28;19932;-70
2022/02/15 12:57:28;;;;;;;;;;;10.30;90.40;;;;;;5030056;28;19931;-71
2022/02/15 12:59:56;;;;;;;;;;;10.30;90.50;;;;;;5029511;28;19931;-70
2022/02/15 13:02:24;;;;;;;;;;;10.30;90.40;;;;;;5027350;28;20561;-71
2022/02/15 13:04:51;;;;;;;;;;;10.30;90.70;;;;;;5030685;28;20387;-71
2022/02/15 13:07:19;;;;;;;;;;;10.40;90.40;;;;;;5035148;28;20441;-71
2022/02/15 13:09:49;;;;;;;;;;;10.50;90.10;;;;;;5029594;28;19965;-71
2022/02/15 13:12:21;;;;;;;;;;;10.30;90.40;;;;;;5029885;28;19931;-70
2022/02/15 13:14:52;;;;;;;;;;;10.30;90.20;;;;;;5030808;28;19932;-70
2022/02/15 13:17:19;;;;;;;;;;;10.20;90.00;;;;;;5030799;28;19932;-71
2022/02/15 13:19:46;;;;;;;;;;;10.20;90.60;;;;;;5024148;28;19925;-71
2022/02/15 13:22:14;;;;;;;;;;;10.20;90.80;;;;;;5029954;28;19925;-70
2022/02/15 13:24:51;;;;;;;;;;;10.30;90.90;;;;;;5029066;28;19933;-71
2022/02/15 13:27:24;;;;;;;;;;;10.30;90.90;;;;;;5026733;28;19932;-73
2022/02/15 13:29:52;;;;;;;;;;;10.30;90.90;;;;;;5026438;28;19935;-72
2022/02/15 13:32:28;;;;;;;;;;;10.40;91.20;;;;;;5034859;28;19924;-71
2022/02/15 13:34:55;;;;;;;;;;;10.30;90.60;;;;;;5034896;28;20023;-72
2022/02/15 13:37:31;;;;;;;;;;;10.40;91.50;;;;;;5039059;28;19941;-70
2022/02/15 13:39:57;;;;;;;;;;;10.40;91.20;;;;;;5025830;28;19979;-70
2022/02/15 13:42:24;;;;;;;;;;;10.40;91.60;;;;;;5036550;28;19931;-69
2022/02/15 13:44:51;;;;;;;;;;;10.40;91.50;;;;;;5026531;28;20292;-70
2022/02/15 13:47:19;;;;;;;;;;;10.40;91.80;;;;;;5036728;28;20399;-72
2022/02/15 13:49:45;;;;;;;;;;;10.60;92.10;;;;;;5029631;28;19925;-70
2022/02/15 13:52:12;;;;;;;;;;;10.50;92.00;;;;;;5019730;28;20300;-71
2022/02/15 13:54:39;;;;;;;;;;;10.30;91.90;;;;;;5027721;28;19932;-71
2022/02/15 13:57:06;;;;;;;;;;;10.20;92.30;;;;;;5025446;28;20028;-71
2022/02/15 13:59:33;;;;;;;;;;;10.20;92.70;;;;;;5029662;28;19971;-71
2022/02/15 14:02:00;;;;;;;;;;;10.20;92.80;;;;;;5035548;28;19931;-71
2022/02/15 14:04:28;;;;;;;;;;;10.20;92.90;;;;;;5033798;28;20024;-72
2022/02/15 14:06:54;;;;;;;;;;;10.20;93.00;;;;;;5037040;28;20011;-71
2022/02/15 14:09:21;;;;;;;;;;;10.20;93.40;;;;;;5046946;28;19929;-72
2022/02/15 14:11:48;;;;;;;;;;;10.30;93.20;;;;;;5040919;28;19925;-73
2022/02/15 14:14:14;;;;;;;;;;;10.10;93.10;;;;;;5034409;28;20000;-72
2022/02/15 14:16:41;;;;;;;;;;;10.10;93.50;;;;;;5029027;28;19925;-72
2022/02/15 14:19:08;;;;;;;;;;;10.10;93.60;;;;;;5040292;28;19925;-70
2022/02/15 14:21:37;;;;;;;;;;;10.10;93.60;;;;;;5032021;28;20178;-71
2022/02/15 14:24:04;;;;;;;;;;;10.10;93.70;;;;;;5031096;28;19980;-73
2022/02/15 14:26:31;;;;;;;;;;;10.10;94.00;;;;;;5036420;28;19925;-73
2022/02/15 14:28:58;;;;;;;;;;;10.10;94.20;;;;;;5041616;28;19931;-73
2022/02/15 14:31:25;;;;;;;;;;;10.10;94.30;;;;;;5037452;28;20407;-72
2022/02/15 14:33:51;;;;;;;;;;;10.00;94.40;;;;;;5038233;28;19935;-72
2022/02/15 14:36:18;;;;;;;;;;;9.90;95.30;;;;;;5034415;28;19940;-72
2022/02/15 14:38:48;;;;;;;;;;;9.90;95.50;;;;;;5031006;28;19943;-71
2022/02/15 14:41:17;;;;;;;;;;;9.80;95.40;;;;;;5048274;28;19925;-72